Página principal
METAR-TAF:

METAR-TAF

Aeroportos :

Sal, Cabo Verde

Aeroporto Internacional Amílcar Cabral

latitude: 16-44N, longitude: 022-57W, altura: 54 m

Observação actual do tempo

O boletim foi feito há 23 minutos, às 12:00 UTC
Vento 15 kt de nordeste
Temperatura 25°C
Humidade 57%
Pressão 1017 hPa
Visibilidade 10 km ou mais
Nuvens fragmentadasa uma altura de 1400 ft

METAR: GVAC 231200Z 05015KT 9999 BKN014 25/16 Q1017 NOSIG

Hora: 11:23 (12:23 UTC)

Previsão

O boletim foi feito há 1 hora e 23 minutos, às 11:00 UTC
Previsão válida de 23 às 12 UTC a 24 às 18 UTC
Vento 18 kt de nor-nordeste
Visibilidade 10 km ou mais
Nuvens fragmentadasa uma altura de 1500 ft
Tornando-se
de 23 às 21 UTC a 23 às 23 UTC
Vento 14 kt de nor-nordeste
Tornando-se
de 24 às 10 UTC a 24 às 12 UTC
Vento 18 kt de nor-nordeste

TAF: GVAC 231100Z 2312/2418 03018KT 9999 BKN015 BECMG 2321/2323 02014KT BECMG 2410/2412 03018KT

Observações e previsões do tempo de mais de 4000 aeroportos (mensagens METAR e TAF).

As estações disponíveis são os pontos amarelos e vermelhos sobre o mapa.

Mova o rato sobre o mapa para ver o nome da estação.

Depois clique no ponto para visualizar as observações e previsões meteorológicas.

Para alterar o mapa : clique nos botões verdes com uma cruz preta para aumentar o zoom; no botão verde com uma pitada de zoom; ou nas setas verdes para mapas adjacentes.


METAR-TAF: